Time;durP1;ratioP1;P1;durP2;ratioP2;P2;SDS_P1;SDS_P2;PMS_P1;PMS_P2;Temp;Humidity;BMP_temperature;BMP_pressure;BME280_temperature;BME280_humidity;BME280_pressure;Samples;Min_cycle;Max_cycle;Signal;HPM_P1;HPM_P2
2021/04/09 00:01:45;;;;;;;0.70;0.70;;;;;;;13.98;45.99;94431.78;5008697;28;20021;-53
2021/04/09 00:04:12;;;;;;;0.82;0.60;;;;;;;13.97;46.44;94435.44;5015133;28;20033;-54
2021/04/09 00:06:37;;;;;;;1.05;0.88;;;;;;;13.98;46.73;94430.00;4995462;28;20030;-54
2021/04/09 00:09:09;;;;;;;0.82;0.60;;;;;;;13.98;46.34;94426.53;5027974;28;20084;-55
2021/04/09 00:11:35;;;;;;;1.02;0.60;;;;;;;13.97;45.98;94433.63;5034786;28;20075;-54
2021/04/09 00:14:03;;;;;;;0.73;0.70;;;;;;;13.97;46.64;94438.88;5002129;28;20031;-54
2021/04/09 00:16:35;;;;;;;0.83;0.60;;;;;;;13.97;46.10;94436.25;5014497;28;20104;-53
2021/04/09 00:19:00;;;;;;;1.25;0.70;;;;;;;13.96;46.40;94429.34;5016261;28;20751;-55
2021/04/09 00:21:32;;;;;;;1.67;0.75;;;;;;;13.97;46.37;94430.19;5000941;28;20025;-54
2021/04/09 00:24:00;;;;;;;1.90;0.93;;;;;;;13.97;46.50;94422.31;5031901;28;20034;-52
2021/04/09 00:26:27;;;;;;;1.25;0.70;;;;;;;13.96;46.50;94418.84;5006202;28;20026;-54
2021/04/09 00:28:52;;;;;;;0.47;0.47;;;;;;;13.97;46.08;94420.47;5005959;28;20029;-54
2021/04/09 00:31:32;;;;;;;0.85;0.52;;;;;;;13.97;46.17;94424.94;4991767;28;20033;-54
2021/04/09 00:34:06;;;;;;;0.85;0.60;;;;;;;13.96;46.44;94423.28;5003960;28;20482;-54
2021/04/09 00:36:35;;;;;;;0.63;0.63;;;;;;;13.96;46.57;94418.84;5031896;28;20101;-54
2021/04/09 00:39:37;;;;;;;;;;;;;;;13.97;46.20;94422.31;5012820;28;20116;-54
2021/04/09 00:42:03;;;;;;;0.50;0.50;;;;;;;13.95;46.66;94419.84;5033731;28;20142;-52
2021/04/09 00:44:29;;;;;;;0.95;0.75;;;;;;;13.94;46.08;94410.31;5015164;28;20044;-54
2021/04/09 00:46:56;;;;;;;0.88;0.77;;;;;;;13.95;46.48;94411.13;4997816;28;20049;-54
2021/04/09 00:49:23;;;;;;;0.95;0.82;;;;;;;13.96;46.36;94410.94;4998307;28;20081;-53
2021/04/09 00:51:57;;;;;;;0.80;0.80;;;;;;;13.96;46.47;94399.63;5013791;28;20084;-54
2021/04/09 00:54:23;;;;;;;1.63;0.70;;;;;;;13.96;46.21;94407.50;5002448;28;20034;-54
2021/04/09 00:56:57;;;;;;;1.55;0.90;;;;;;;13.96;46.48;94404.88;5016835;28;20037;-54
2021/04/09 00:59:24;;;;;;;0.70;0.68;;;;;;;13.95;46.28;94400.59;5012050;28;20033;-54
2021/04/09 01:01:58;;;;;;;1.00;0.60;;;;;;;13.95;46.58;94401.44;5018389;28;20030;-54
2021/04/09 01:04:26;;;;;;;0.70;0.60;;;;;;;13.96;46.55;94396.97;4983283;28;20025;-54
2021/04/09 01:06:54;;;;;;;1.40;0.77;;;;;;;13.97;46.07;94398.63;5000901;28;20025;-54
2021/04/09 01:09:19;;;;;;;0.68;0.68;;;;;;;13.96;46.14;94395.16;5013987;28;20037;-54
2021/04/09 01:11:45;;;;;;;0.65;0.45;;;;;;;13.96;46.17;94392.53;5000487;28;20025;-54
2021/04/09 01:14:11;;;;;;;0.80;0.77;;;;;;;13.97;46.09;94393.34;5016181;28;20029;-54
2021/04/09 01:16:47;;;;;;;1.08;0.90;;;;;;;13.95;46.19;94388.28;5017520;28;20042;-54
2021/04/09 01:19:44;;;;;;;0.45;0.45;;;;;;;13.96;46.38;94392.53;5032453;28;20037;-54
2021/04/09 01:22:17;;;;;;;0.60;0.60;;;;;;;13.96;46.55;94387.25;5016320;28;20423;-54
2021/04/09 01:25:11;;;;;;;0.90;0.70;;;;;;;13.95;46.15;94390.91;4997894;28;20022;-54
2021/04/09 01:28:08;;;;;;;0.60;0.60;;;;;;;13.96;46.18;94386.47;5026102;28;20044;-54
2021/04/09 01:34:06;;;;;;;0.50;0.50;;;;;;;13.95;46.44;94380.41;5014890;28;20030;-54
2021/04/09 01:36:45;;;;;;;0.60;0.60;;;;;;;13.96;46.51;94379.38;4996709;28;20037;-53
2021/04/09 01:39:17;;;;;;;0.60;0.60;;;;;;;13.94;46.42;94378.75;4995768;28;20034;-52
2021/04/09 01:41:52;;;;;;;0.52;0.50;;;;;;;13.95;46.36;94375.13;4996862;28;20065;-54
2021/04/09 01:44:27;;;;;;;0.82;0.80;;;;;;;13.95;46.40;94369.03;4996055;28;20041;-54
2021/04/09 01:47:01;;;;;;;0.47;0.47;;;;;;;13.95;46.28;94375.13;4976832;28;20507;-54
2021/04/09 01:49:29;;;;;;;0.70;0.60;;;;;;;13.95;46.79;94375.13;4995196;28;20030;-54
2021/04/09 01:52:04;;;;;;;0.55;0.52;;;;;;;13.95;46.62;94374.31;4976753;28;20046;-54
2021/04/09 01:54:30;;;;;;;0.70;0.70;;;;;;;13.96;46.32;94376.75;4977188;28;20475;-54
2021/04/09 01:57:06;;;;;;;2.03;0.90;;;;;;;13.95;46.12;94383.03;4989851;28;20192;-54
2021/04/09 01:59:46;;;;;;;0.90;0.55;;;;;;;13.95;46.32;94380.41;4992017;28;20038;-54
2021/04/09 02:02:21;;;;;;;0.40;0.40;;;;;;;13.95;46.28;94375.13;4974850;28;20037;-54
2021/04/09 02:04:46;;;;;;;0.60;0.50;;;;;;;13.95;46.11;94374.31;4995573;28;20061;-54
2021/04/09 02:07:15;;;;;;;1.27;0.70;;;;;;;13.97;46.66;94369.69;4980210;28;20039;-53
2021/04/09 02:09:48;;;;;;;0.40;0.40;;;;;;;13.97;46.22;94374.94;4996248;28;20044;-54
2021/04/09 02:12:24;;;;;;;0.70;0.65;;;;;;;13.95;46.22;94369.88;5012459;28;20065;-53
2021/04/09 02:15:00;;;;;;;0.95;0.60;;;;;;;13.96;46.10;94365.41;5016417;28;20045;-54
2021/04/09 02:17:25;;;;;;;0.60;0.60;;;;;;;13.95;46.19;94371.66;5000557;28;21522;-54
2021/04/09 02:19:51;;;;;;;0.50;0.43;;;;;;;13.95;46.30;94369.03;5033226;28;20025;-54
2021/04/09 02:22:18;;;;;;;0.50;0.50;;;;;;;13.95;46.24;94369.03;5014513;28;20025;-54
2021/04/09 02:24:47;;;;;;;0.90;0.70;;;;;;;13.94;46.62;94370.88;4987086;28;20014;-53
2021/04/09 02:27:13;;;;;;;0.77;0.57;;;;;;;13.96;46.02;94371.47;5015609;28;20030;-53
2021/04/09 02:29:43;;;;;;;0.63;0.50;;;;;;;13.95;46.59;94369.03;5014449;28;20072;-52
2021/04/09 02:32:10;;;;;;;1.55;0.60;;;;;;;13.94;46.50;94368.25;4999277;28;20119;-54
2021/04/09 02:34:37;;;;;;;0.70;0.60;;;;;;;13.96;46.49;94366.22;5032719;28;20090;-54
2021/04/09 02:37:08;;;;;;;0.70;0.70;;;;;;;13.95;46.26;94361.16;5032190;28;20025;-54
2021/04/09 02:39:48;;;;;;;0.30;0.30;;;;;;;13.94;46.42;94362.97;4999505;28;20032;-54
2021/04/09 02:42:20;;;;;;;;;;;;;;;13.95;46.14;94361.97;5032967;28;20022;-54
2021/04/09 02:44:46;;;;;;;1.45;0.70;;;;;;;13.94;46.46;94357.72;5031418;28;20284;-54
2021/04/09 02:47:22;;;;;;;0.40;0.40;;;;;;;13.95;46.30;94353.25;5032568;28;20040;-54
2021/04/09 02:49:51;;;;;;;1.08;0.68;;;;;;;13.94;46.31;94346.38;5031795;28;20088;-54
2021/04/09 02:52:30;;;;;;;0.52;0.50;;;;;;;13.96;46.41;94352.25;4996788;28;20050;-53
2021/04/09 02:54:57;;;;;;;0.55;0.52;;;;;;;13.96;46.48;94354.91;5001063;28;20033;-54
2021/04/09 02:57:24;;;;;;;0.80;0.52;;;;;;;13.94;46.66;94347.19;5029219;28;20022;-54
2021/04/09 02:59:53;;;;;;;0.90;0.50;;;;;;;13.95;46.47;94348.84;4984038;28;20033;-54
2021/04/09 03:02:18;;;;;;;0.60;0.60;;;;;;;13.95;46.18;94354.09;5024289;28;20029;-54
2021/04/09 03:04:44;;;;;;;0.45;0.45;;;;;;;13.96;46.30;94360.16;5012440;28;20033;-54
2021/04/09 03:07:13;;;;;;;1.05;0.45;;;;;;;13.96;46.54;94358.31;5027520;28;20113;-54
2021/04/09 03:09:38;;;;;;;0.55;0.55;;;;;;;13.96;46.50;94362.78;5015782;28;20080;-54
2021/04/09 03:12:21;;;;;;;0.70;0.70;;;;;;;13.96;46.66;94366.22;5034007;28;20029;-54
2021/04/09 03:14:57;;;;;;;1.42;0.60;;;;;;;13.96;46.45;94360.16;5029848;28;20026;-53
2021/04/09 03:17:34;;;;;;;0.60;0.50;;;;;;;13.96;46.00;94358.31;5010105;28;20029;-54
2021/04/09 03:19:59;;;;;;;0.50;0.50;;;;;;;13.97;46.47;94348.63;5007302;28;20026;-54
2021/04/09 03:22:25;;;;;;;0.50;0.50;;;;;;;13.96;46.33;94358.31;5008197;28;20049;-55
2021/04/09 03:24:54;;;;;;;0.70;0.70;;;;;;;13.96;46.34;94360.16;5012242;28;20106;-52
2021/04/09 03:27:22;;;;;;;0.77;0.70;;;;;;;13.95;46.07;94350.63;5016053;28;20032;-54
2021/04/09 03:29:58;;;;;;;0.68;0.60;;;;;;;13.96;46.26;94344.38;5031798;28;20433;-54
2021/04/09 03:32:32;;;;;;;0.50;0.50;;;;;;;13.96;46.60;94345.19;5045128;28;20035;-54
2021/04/09 03:35:07;;;;;;;0.75;0.75;;;;;;;13.96;46.22;94350.44;4978247;28;20038;-55
2021/04/09 03:37:33;;;;;;;0.80;0.80;;;;;;;13.95;46.43;94354.09;4977610;28;20033;-49
2021/04/09 03:40:01;;;;;;;0.75;0.60;;;;;;;13.96;46.04;94350.44;4998234;28;20137;-54
2021/04/09 03:42:26;;;;;;;1.00;0.65;;;;;;;13.97;46.21;94344.19;4987326;28;20787;-54
2021/04/09 03:44:53;;;;;;;0.50;0.50;;;;;;;13.96;46.03;94339.91;4991377;28;20030;-53
2021/04/09 03:47:18;;;;;;;0.55;0.55;;;;;;;13.96;46.10;94350.44;4996065;28;20045;-54
2021/04/09 03:49:43;;;;;;;0.55;0.55;;;;;;;13.97;46.03;94338.13;5014682;28;20062;-55
2021/04/09 03:52:09;;;;;;;0.70;0.70;;;;;;;13.96;46.32;94339.13;5012260;28;20023;-50
2021/04/09 03:54:38;;;;;;;0.52;0.52;;;;;;;13.96;46.31;94339.91;4998788;28;20532;-54
2021/04/09 03:57:07;;;;;;;0.43;0.43;;;;;;;13.95;46.40;94332.22;4997780;28;20029;-53
2021/04/09 03:59:34;;;;;;;1.35;0.70;;;;;;;13.96;46.36;94331.22;5026275;28;20034;-55
2021/04/09 04:01:59;;;;;;;0.55;0.55;;;;;;;13.95;46.62;94330.41;4995263;28;20124;-51
2021/04/09 04:04:25;;;;;;;0.75;0.52;;;;;;;13.95;46.00;94329.59;4981464;28;20037;-51
2021/04/09 04:06:52;;;;;;;0.47;0.47;;;;;;;13.95;46.40;94325.16;5028984;28;20041;-54
2021/04/09 04:09:26;;;;;;;0.90;0.60;;;;;;;13.95;46.23;94325.16;5033626;28;20109;-54
2021/04/09 04:11:52;;;;;;;0.75;0.60;;;;;;;13.95;46.23;94329.59;5035586;28;20381;-52
2021/04/09 04:14:25;;;;;;;0.60;0.60;;;;;;;13.95;46.33;94329.59;5034538;28;20026;-53
2021/04/09 04:16:58;;;;;;;0.70;0.60;;;;;;;13.95;46.44;94335.69;5027366;28;20033;-54
2021/04/09 04:19:30;;;;;;;0.95;0.82;;;;;;;13.95;46.18;94332.22;5032234;28;20148;-54
2021/04/09 04:22:01;;;;;;;0.63;0.55;;;;;;;13.94;46.52;94331.41;4987894;28;20539;-54
2021/04/09 04:24:44;;;;;;;0.50;0.50;;;;;;;13.95;46.30;94332.22;5018771;28;20029;-53
2021/04/09 04:27:12;;;;;;;0.40;0.40;;;;;;;13.94;46.12;94331.41;4994010;28;20030;-54
2021/04/09 04:29:42;;;;;;;0.50;0.50;;;;;;;13.94;46.30;94336.66;5018083;28;20044;-54
2021/04/09 04:32:16;;;;;;;0.60;0.60;;;;;;;13.95;46.50;94329.59;5018729;28;20098;-55
2021/04/09 04:34:46;;;;;;;0.60;0.60;;;;;;;13.95;46.16;94332.22;5033933;28;20147;-53
2021/04/09 04:37:21;;;;;;;0.70;0.70;;;;;;;13.94;46.66;94331.41;5036122;28;20052;-55
2021/04/09 04:39:48;;;;;;;1.00;0.73;;;;;;;13.94;46.30;94339.31;4997255;28;20022;-53
2021/04/09 04:42:17;;;;;;;0.65;0.65;;;;;;;13.94;46.46;94344.56;5021214;28;20052;-55
2021/04/09 04:44:43;;;;;;;0.60;0.57;;;;;;;13.96;46.62;94344.38;5003593;28;20041;-54
2021/04/09 04:47:09;;;;;;;0.50;0.50;;;;;;;13.94;46.15;94335.84;5006360;28;20069;-54
2021/04/09 04:49:36;;;;;;;0.70;0.70;;;;;;;13.93;46.19;94339.50;5019408;28;20013;-55
2021/04/09 04:52:01;;;;;;;1.02;0.40;;;;;;;13.94;45.96;94341.94;5016204;28;20045;-52
2021/04/09 04:54:27;;;;;;;0.50;0.50;;;;;;;13.95;46.16;94340.09;5019654;28;20041;-54
2021/04/09 04:56:58;;;;;;;1.10;0.52;;;;;;;13.93;46.42;94329.78;5018308;28;20022;-54
2021/04/09 04:59:24;;;;;;;0.68;0.68;;;;;;;13.95;46.11;94330.41;4998015;28;20022;-54
2021/04/09 05:01:51;;;;;;;0.60;0.60;;;;;;;13.96;46.60;94328.59;5009299;28;20028;-53
2021/04/09 05:04:17;;;;;;;0.63;0.60;;;;;;;13.95;46.11;94327.78;5019899;28;20089;-53
2021/04/09 05:06:44;;;;;;;0.60;0.60;;;;;;;13.93;46.43;94323.72;5044743;28;20030;-54
2021/04/09 05:09:13;;;;;;;0.80;0.80;;;;;;;13.94;46.26;94323.53;5039790;28;20025;-54
2021/04/09 05:11:42;;;;;;;0.50;0.50;;;;;;;13.94;46.32;94328.78;5019707;28;20061;-54
2021/04/09 05:14:08;;;;;;;0.40;0.40;;;;;;;13.96;46.12;94331.22;5049660;28;20036;-51
2021/04/09 05:16:33;;;;;;;0.63;0.60;;;;;;;13.94;46.05;94326.16;5017942;28;20025;-54
2021/04/09 05:18:59;;;;;;;0.57;0.57;;;;;;;13.93;46.16;94321.09;5034171;28;20025;-52
2021/04/09 05:21:27;;;;;;;0.47;0.45;;;;;;;13.93;46.62;94323.72;5017721;28;20135;-53
2021/04/09 05:23:52;;;;;;;0.50;0.50;;;;;;;13.93;46.20;94328.97;5014969;28;20033;-54
2021/04/09 05:26:18;;;;;;;0.80;0.55;;;;;;;13.95;46.50;94326.94;5033053;28;20033;-54
2021/04/09 05:28:43;;;;;;;0.70;0.60;;;;;;;13.95;46.33;94324.31;5006888;28;20069;-53
2021/04/09 05:31:09;;;;;;;0.60;0.60;;;;;;;13.95;46.26;94332.22;5027938;28;20034;-54
2021/04/09 05:33:40;;;;;;;0.52;0.52;;;;;;;13.94;46.41;94336.66;5010574;28;20021;-53
2021/04/09 05:36:17;;;;;;;0.77;0.60;;;;;;;13.92;46.45;94330.78;5011762;28;20061;-52
2021/04/09 05:38:43;;;;;;;0.80;0.60;;;;;;;13.94;46.42;94325.31;5021450;28;20057;-53
2021/04/09 05:41:10;;;;;;;0.50;0.50;;;;;;;13.93;46.38;94331.59;5030113;28;20064;-53
2021/04/09 05:43:36;;;;;;;0.65;0.65;;;;;;;13.94;46.09;94328.78;5028581;28;20046;-53
2021/04/09 05:46:03;;;;;;;0.68;0.68;;;;;;;13.94;46.31;94323.53;5011341;28;20396;-48
2021/04/09 05:48:35;;;;;;;0.95;0.70;;;;;;;13.95;46.37;94333.03;5018701;28;20043;-53
2021/04/09 05:51:06;;;;;;;1.50;0.80;;;;;;;13.95;46.34;94329.59;5047802;28;20047;-53
2021/04/09 05:53:33;;;;;;;1.25;0.63;;;;;;;13.96;46.25;94333.84;5046992;28;20017;-54
2021/04/09 05:56:06;;;;;;;0.60;0.60;;;;;;;13.96;46.12;94336.47;5029894;28;20321;-52
2021/04/09 05:58:36;;;;;;;0.40;0.40;;;;;;;13.95;46.25;94327.78;5066978;28;20029;-52
2021/04/09 06:01:01;;;;;;;0.60;0.60;;;;;;;13.96;46.10;94328.59;5019804;28;20029;-53
2021/04/09 06:03:27;;;;;;;0.40;0.40;;;;;;;13.94;46.16;94336.66;5035450;28;20025;-54
2021/04/09 06:05:52;;;;;;;0.60;0.52;;;;;;;13.94;46.40;94328.78;5019152;28;20029;-54
2021/04/09 06:08:18;;;;;;;1.38;0.50;;;;;;;14.12;46.25;94338.06;5032334;28;20033;-59
2021/04/09 06:10:57;;;;;;;;;;;;;;;14.52;47.13;94336.56;5017156;28;20099;-68
2021/04/09 06:13:27;;;;;;;;;;;;;;;14.39;45.69;94340.88;5035506;28;19929;-63
2021/04/09 06:15:54;;;;;;;;;;;;;;;14.35;45.97;94343.91;5045398;28;19925;-61
2021/04/09 06:18:19;;;;;;;;;;;;;;;14.33;46.15;94347.72;5017771;28;19925;-79
2021/04/09 06:20:50;;;;;;;;;;;;;;;14.68;45.29;94353.09;5024711;28;19921;-44
2021/04/09 06:23:20;;;;;;;;;;;;;;;14.47;46.08;94356.53;5034871;28;19982;-45
2021/04/09 06:26:14;;;;;;;;;;;;;;;14.34;46.13;94352.00;5044434;28;19917;-44
2021/04/09 06:28:48;;;;;;;;;;;;;;;14.26;46.41;94349.50;5005713;28;19921;-48
2021/04/09 06:31:14;;;;;;;;;;;;;;;14.21;46.72;94350.06;4977590;28;19922;-45
2021/04/09 06:33:42;;;;;;;;;;;;;;;14.19;46.26;94349.44;4988569;28;19960;-46
2021/04/09 06:36:08;;;;;;;;;;;;;;;14.16;46.26;94350.63;4971432;28;19922;-46
2021/04/09 06:38:33;;;;;;;;;;;;;;;14.15;46.17;94343.72;4998428;28;19921;-46
2021/04/09 06:40:59;;;;;;;;;;;;;;;14.15;46.49;94348.19;4991469;28;19956;-45
2021/04/09 06:43:24;;;;;;;;;;;;;;;14.13;46.48;94348.38;4993725;28;19944;-45
2021/04/09 06:45:50;;;;;;;;;;;;;;;14.13;46.14;94355.44;4978414;28;20005;-44
2021/04/09 06:48:15;;;;;;;;;;;;;;;14.13;46.11;94358.06;4994754;28;19957;-45
2021/04/09 06:50:42;;;;;;;;;;;;;;;14.12;46.25;94353.84;4978579;28;19918;-44
2021/04/09 06:53:11;;;;;;;;;;;;;;;14.12;46.23;94351.22;4986242;28;19922;-46
2021/04/09 06:55:38;;;;;;;;;;;;;;;14.12;46.09;94351.22;4952778;28;19971;-44
2021/04/09 06:58:14;;;;;;;;;;;;;;;14.11;46.42;94344.31;4972137;28;19970;-45
2021/04/09 07:00:39;;;;;;;;;;;;;;;14.11;46.35;94342.47;4991001;28;19922;-45
2021/04/09 07:03:07;;;;;;;;;;;;;;;14.09;46.17;94341.88;5011692;28;19921;-49
2021/04/09 07:05:32;;;;;;;;;;;;;;;14.08;45.89;94342.88;5032615;28;19969;-46
2021/04/09 07:07:59;;;;;;;;;;;;;;;14.08;46.37;94344.69;5052001;28;20015;-45
2021/04/09 07:10:29;;;;;;;;;;;;;;;14.08;45.89;94337.59;5050269;28;19925;-44
2021/04/09 07:13:09;;;;;;;;;;;;;;;14.07;45.97;94345.69;5045766;28;19928;-45
2021/04/09 07:15:37;;;;;;;;;;;;;;;14.07;45.96;94340.44;5042683;28;19928;-44
2021/04/09 07:18:16;;;;;;;;;;;;;;;14.07;46.09;94335.16;5024492;28;19917;-44
2021/04/09 07:20:50;;;;;;;;;;;;;;;14.06;46.37;94334.38;5032783;28;19916;-44
2021/04/09 07:23:24;;;;;;;;;;;;;;;14.05;46.16;94332.72;5037076;28;19995;-45
2021/04/09 07:25:56;;;;;;;;;;;;;;;14.05;46.24;94335.34;5041215;28;19971;-44
2021/04/09 07:28:22;;;;;;;;;;;;;;;14.05;45.94;94335.34;5054790;28;19987;-44
2021/04/09 07:30:57;;;;;;;;;;;;;;;14.04;46.31;94332.91;5037500;28;19917;-45
2021/04/09 07:33:43;;;;;;;;;;;;;;;14.05;46.03;94345.88;5032762;28;19924;-44
2021/04/09 07:36:09;;;;;;;;;;;;;;;14.04;45.99;94327.66;5050792;28;20095;-44
2021/04/09 07:38:36;;;;;;;;;;;;;;;14.04;46.10;94341.63;5034777;28;19917;-44
2021/04/09 07:41:03;;;;;;;;;;;;;;;14.04;45.86;94330.28;5047368;28;19959;-45
2021/04/09 07:43:32;;;;;;;;;;;;;;;14.04;46.16;94331.09;5053309;28;19924;-45
2021/04/09 07:46:01;;;;;;;;;;;;;;;14.05;45.58;94329.25;5053728;28;19928;-45
2021/04/09 07:48:31;;;;;;;;;;;;;;;14.04;45.94;94333.72;5056625;28;19974;-48
2021/04/09 07:51:07;;;;;;;;;;;;;;;14.04;45.66;94336.34;5055690;28;19923;-44
2021/04/09 07:53:32;;;;;;;;;;;;;;;14.04;45.64;94332.91;5034488;28;20004;-44
2021/04/09 07:56:11;;;;;;;;;;;;;;;14.04;45.84;94331.09;5047949;28;20061;-44
2021/04/09 07:58:54;;;;;;;;;;;;;;;14.04;45.60;94335.56;5039800;28;19917;-44
2021/04/09 08:01:24;;;;;;;;;;;;;;;14.03;45.91;94337.34;5043553;28;19927;-44
2021/04/09 08:03:49;;;;;;;;;;;;;;;14.03;45.61;94337.34;5053990;28;21391;-47
2021/04/09 08:06:21;;;;;;;;;;;;;;;14.02;45.97;94331.28;5036780;28;19920;-44
2021/04/09 08:08:47;;;;;;;;;;;;;;;14.17;44.97;94333.00;5036411;28;19917;-54
2021/04/09 08:11:23;;;;;;;2.13;1.10;;;;;;;14.11;44.74;94331.16;5049982;28;20187;-63
2021/04/09 08:14:10;;;;;;;2.88;1.25;;;;;;;13.99;44.51;94328.19;5042749;28;20043;-63
2021/04/09 08:16:37;;;;;;;2.35;1.20;;;;;;;13.93;44.85;94324.50;5049479;28;20029;-61
2021/04/09 08:19:16;;;;;;;1.17;1.00;;;;;;;13.91;44.99;94325.69;5046509;28;20047;-62
2021/04/09 08:21:50;;;;;;;1.63;0.90;;;;;;;13.89;44.94;94320.63;5019523;28;20032;-63
2021/04/09 08:24:42;;;;;;;1.73;0.90;;;;;;;13.89;44.96;94328.53;5041283;28;20055;-63
2021/04/09 08:27:08;;;;;;;1.83;1.13;;;;;;;13.88;45.38;94326.09;4993353;28;20052;-63
2021/04/09 08:29:34;;;;;;;0.70;0.70;;;;;;;13.88;45.24;94320.81;4977465;28;20598;-63
2021/04/09 08:32:03;;;;;;;0.80;0.80;;;;;;;13.88;45.10;94324.25;4979929;28;20084;-63
2021/04/09 08:34:43;;;;;;;1.00;0.90;;;;;;;13.87;45.37;94325.28;4967935;28;20093;-63
2021/04/09 08:37:09;;;;;;;0.68;0.63;;;;;;;13.87;45.36;94321.81;4992247;28;20041;-63
2021/04/09 08:39:40;;;;;;;1.00;0.80;;;;;;;13.88;45.30;94320.81;4996556;28;20519;-62
2021/04/09 08:42:15;;;;;;;0.80;0.80;;;;;;;13.88;45.12;94315.56;4977767;28;20022;-63
2021/04/09 08:44:49;;;;;;;0.82;0.60;;;;;;;13.88;45.46;94315.56;5007588;28;20042;-63
2021/04/09 08:47:16;;;;;;;0.60;0.60;;;;;;;13.86;45.17;94310.50;4988749;28;20030;-59
2021/04/09 08:49:46;;;;;;;0.90;0.90;;;;;;;13.87;45.49;94306.88;5004972;28;20108;-63
2021/04/09 08:52:18;;;;;;;0.73;0.73;;;;;;;13.87;45.65;94306.88;4978903;28;20061;-63
2021/04/09 08:54:52;;;;;;;1.40;1.00;;;;;;;13.87;45.33;94314.75;4982827;28;20034;-62
2021/04/09 08:57:38;;;;;;;0.80;0.80;;;;;;;13.87;45.51;94312.13;4994837;28;20037;-63
2021/04/09 09:00:05;;;;;;;1.00;0.90;;;;;;;13.87;45.66;94308.66;5012736;28;20045;-61
2021/04/09 09:02:56;;;;;;;0.50;0.50;;;;;;;13.87;45.72;94306.03;4989086;28;20033;-63
2021/04/09 09:05:26;;;;;;;1.55;0.60;;;;;;;13.86;45.85;94302.59;5034258;28;20124;-63
2021/04/09 09:07:52;;;;;;;0.80;0.80;;;;;;;13.87;45.88;94298.16;5049761;28;20021;-62
2021/04/09 09:10:31;;;;;;;1.70;0.63;;;;;;;13.87;45.71;94303.41;5042064;28;20029;-63
2021/04/09 09:13:02;;;;;;;0.70;0.70;;;;;;;13.86;45.61;94297.34;5046782;28;20023;-63
2021/04/09 09:15:46;;;;;;;0.65;0.52;;;;;;;13.86;45.57;94292.09;5044048;28;20405;-59
2021/04/09 09:18:24;;;;;;;1.20;0.70;;;;;;;13.87;45.78;94290.25;5043857;28;20055;-63
2021/04/09 09:21:09;;;;;;;0.70;0.70;;;;;;;14.09;44.42;94284.00;5053570;28;20064;-63
2021/04/09 09:23:51;;;;;;;1.05;0.88;;;;;;;14.01;44.79;94287.56;5025230;28;20033;-59
2021/04/09 09:26:23;;;;;;;3.45;1.23;;;;;;;13.94;44.92;94288.50;5042222;28;20029;-62
2021/04/09 09:29:09;;;;;;;1.50;1.00;;;;;;;13.92;44.97;94285.25;5036811;28;20025;-62
2021/04/09 09:31:36;;;;;;;1.27;0.80;;;;;;;13.89;45.20;94283.81;5046289;28;20017;-61
2021/04/09 09:34:25;;;;;;;0.73;0.70;;;;;;;13.89;45.22;94285.63;5040929;28;20476;-62
2021/04/09 09:37:29;;;;;;;0.80;0.80;;;;;;;13.89;45.13;94286.44;5047740;28;20147;-63
2021/04/09 09:40:07;;;;;;;2.03;0.70;;;;;;;13.88;45.57;94291.91;5011769;28;20283;-63
2021/04/09 09:42:33;;;;;;;1.08;0.73;;;;;;;13.88;45.13;94284.00;4997969;28;20099;-62
2021/04/09 09:45:13;;;;;;;1.95;0.80;;;;;;;13.87;45.55;94277.94;5032030;28;20041;-62
2021/04/09 09:47:44;;;;;;;1.65;0.85;;;;;;;13.94;44.62;94284.06;5014792;28;20125;-58
2021/04/09 09:50:13;;;;;;;1.20;0.90;;;;;;;13.92;44.53;94280.00;4990505;28;20052;-63
2021/04/09 09:53:07;;;;;;;1.35;0.90;;;;;;;13.90;44.84;94277.56;4986543;28;20028;-62
2021/04/09 09:55:39;;;;;;;2.38;0.82;;;;;;;13.89;45.44;94280.38;5011495;28;20508;-62
2021/04/09 09:58:19;;;;;;;1.30;0.90;;;;;;;13.88;45.45;94274.28;4999172;28;20021;-62
2021/04/09 10:01:01;;;;;;;1.00;0.90;;;;;;;13.87;45.09;94277.94;4998235;28;20037;-62
2021/04/09 10:03:36;;;;;;;1.40;0.88;;;;;;;13.87;45.19;94280.56;5004247;28;20064;-63
2021/04/09 10:06:02;;;;;;;2.20;1.10;;;;;;;13.88;45.56;94279.53;4996944;28;20120;-57
2021/04/09 10:08:36;;;;;;;1.35;0.90;;;;;;;13.87;45.51;94280.56;5026744;28;21255;-62
2021/04/09 10:11:06;;;;;;;1.52;0.85;;;;;;;13.87;45.27;94277.09;5011528;28;20025;-62
2021/04/09 10:13:45;;;;;;;2.60;0.90;;;;;;;13.86;45.86;94273.66;5003946;28;20052;-62
2021/04/09 10:16:14;;;;;;;0.98;0.80;;;;;;;13.86;45.66;94278.94;5027841;28;20033;-63
2021/04/09 10:18:43;;;;;;;;;;;;;;;13.86;45.32;94271.03;5033440;28;20052;-63
2021/04/09 10:21:15;;;;;;;1.85;1.10;;;;;;;13.86;45.17;94268.41;5043462;28;19948;-63
2021/04/09 10:23:44;;;;;;;0.50;0.50;;;;;;;13.86;45.68;94265.78;5033548;28;20025;-62
2021/04/09 10:26:16;;;;;;;0.60;0.60;;;;;;;13.86;45.65;94265.78;5033608;28;20037;-62
2021/04/09 10:28:42;;;;;;;0.65;0.65;;;;;;;13.86;45.56;94268.41;5044655;28;20166;-60
2021/04/09 10:31:09;;;;;;;1.13;0.90;;;;;;;13.86;45.73;94271.03;5030823;28;20095;-62
2021/04/09 10:33:39;;;;;;;2.28;1.00;;;;;;;13.86;45.50;94265.78;5014861;28;20017;-62
2021/04/09 10:36:27;;;;;;;0.50;0.50;;;;;;;13.85;45.83;94264.16;5016635;28;20037;-63
2021/04/09 10:38:55;;;;;;;0.82;0.80;;;;;;;13.85;45.55;94258.88;5027646;28;20025;-62
2021/04/09 10:41:25;;;;;;;0.65;0.60;;;;;;;13.85;45.78;94254.44;5041936;28;20308;-62
2021/04/09 10:44:07;;;;;;;1.45;0.98;;;;;;;13.84;45.57;94252.81;5047222;28;20389;-62
2021/04/09 10:46:36;;;;;;;0.70;0.70;;;;;;;13.84;45.73;94250.19;5043644;28;20025;-62
2021/04/09 10:49:04;;;;;;;0.70;0.70;;;;;;;13.85;45.61;94243.09;5027828;28;20468;-61
2021/04/09 10:51:36;;;;;;;0.95;0.90;;;;;;;13.84;45.66;94244.94;5029736;28;20057;-62
2021/04/09 10:54:01;;;;;;;0.70;0.70;;;;;;;13.84;45.22;94244.94;5031356;28;20025;-57
2021/04/09 10:56:29;;;;;;;0.88;0.80;;;;;;;13.83;45.37;94238.03;5046182;28;20055;-62
2021/04/09 10:58:55;;;;;;;1.17;1.00;;;;;;;13.83;45.48;94224.88;5027090;28;20689;-62
2021/04/09 11:01:27;;;;;;;1.33;0.70;;;;;;;13.82;45.37;94223.25;5022377;28;20035;-62
2021/04/09 11:03:53;;;;;;;0.82;0.82;;;;;;;13.82;45.40;94212.75;5044315;28;20056;-62
2021/04/09 11:06:20;;;;;;;0.50;0.50;;;;;;;13.84;45.33;94226.53;5034140;28;20033;-62
2021/04/09 11:08:45;;;;;;;0.75;0.70;;;;;;;13.84;45.83;94212.53;5035383;28;20468;-62
2021/04/09 11:11:11;;;;;;;1.58;0.70;;;;;;;13.82;45.89;94212.75;5016357;28;20037;-60
2021/04/09 11:13:43;;;;;;;0.80;0.65;;;;;;;13.83;45.42;94213.53;5030056;28;20031;-62
2021/04/09 11:16:15;;;;;;;0.88;0.63;;;;;;;13.83;45.48;94210.91;5007384;28;20047;-62
2021/04/09 11:18:57;;;;;;;0.75;0.75;;;;;;;13.82;45.54;94204.84;5038965;28;20040;-62
2021/04/09 11:21:42;;;;;;;1.15;0.80;;;;;;;13.83;45.22;94205.66;5031461;28;20485;-61
2021/04/09 11:24:09;;;;;;;0.70;0.70;;;;;;;13.83;45.11;94201.22;5040115;28;20037;-62
2021/04/09 11:26:35;;;;;;;0.82;0.70;;;;;;;13.84;45.52;94202.03;5027197;28;20040;-62
2021/04/09 11:29:03;;;;;;;0.90;0.90;;;;;;;13.84;45.50;94194.13;5031034;28;20026;-60
2021/04/09 11:31:28;;;;;;;0.88;0.77;;;;;;;13.83;44.83;94189.88;5015355;28;20027;-60
2021/04/09 11:34:10;;;;;;;1.20;0.82;;;;;;;13.84;45.03;94183.63;5056353;28;20029;-62
2021/04/09 11:36:45;;;;;;;1.00;0.77;;;;;;;13.84;44.73;94189.69;5053800;28;20025;-61
2021/04/09 11:39:49;;;;;;;0.52;0.50;;;;;;;13.85;45.13;94182.63;5017404;28;20257;-62
2021/04/09 11:42:30;;;;;;;0.90;0.90;;;;;;;13.84;44.51;94183.63;5000699;28;20041;-62
2021/04/09 11:44:56;;;;;;;0.80;0.73;;;;;;;13.84;44.86;94178.34;4991564;28;20041;-62
2021/04/09 11:47:33;;;;;;;0.70;0.70;;;;;;;13.84;44.71;94180.97;4984235;28;20026;-62
2021/04/09 11:50:36;;;;;;;0.90;0.90;;;;;;;13.84;44.60;94173.94;4976834;28;20030;-62
2021/04/09 11:53:03;;;;;;;0.82;0.82;;;;;;;13.85;44.73;94172.09;4935930;29;20366;-62
2021/04/09 11:55:36;;;;;;;1.55;0.95;;;;;;;13.86;44.43;94168.47;4928394;29;20087;-62
2021/04/09 11:58:03;;;;;;;0.70;0.70;;;;;;;13.85;45.08;94164.19;4944256;29;20083;-60
2021/04/09 12:01:01;;;;;;;1.08;0.77;;;;;;;13.86;44.81;94165.84;4929008;29;20040;-61
2021/04/09 12:03:39;;;;;;;0.80;0.80;;;;;;;13.86;44.62;94168.47;4931814;29;20077;-61
2021/04/09 12:06:15;;;;;;;0.95;0.77;;;;;;;13.87;44.84;94172.72;4950291;28;20405;-61
2021/04/09 12:08:40;;;;;;;1.25;1.13;;;;;;;13.87;44.44;94162.22;4936131;29;20069;-62
2021/04/09 12:11:22;;;;;;;1.13;0.73;;;;;;;13.87;44.66;94158.75;4920237;29;20046;-61